CheckWX is a tool to help pilots better visualize weather data.  It is not intended as a substitute for an official pre-flight weather briefing.

16:41:57 UTC

KFTK TAF
Godman AAF Airport
Fort Knox, Kentucky, USA
TAF KFTK 070900Z 0709/0815 03006KT 9999 BKN020 QNH3029INS BECMG 0717/0718 VRB06KT 9999 SCT025 QNH3026INS BECMG 0814/0815 19012G18KT 9999 SCT040 QNH3018INS TX07/0720Z TNM01/0711Z

Dec-7@
09:00 UTC

Dec-7 @ 09:00 UTC

Dec-7@
17:00 UTC

Dec-7 @ 17:00 UTC

TAF KFTK 070900Z 0709/0815 03006KT 9999 BKN020 QNH3029INS
Wind
  • 030° at 6 KTS
Cloud Levels
  • Broken at 2,000' AGL

Dec-7@
17:00 UTC

Dec-7 @ 17:00 UTC

Dec-8@
14:00 UTC

Dec-8 @ 14:00 UTC

BECMG 0717/0718 VRB06KT 9999 SCT025 QNH3026INS

Becoming

Becoming Conditions expected by Sat, Dec 7, 2019 @ 18:00 UTC

Wind
  • Variable at 6 KTS
Cloud Levels
  • Scattered at 2,500' AGL

Dec-8@
14:00 UTC

Dec-8 @ 14:00 UTC

Dec-8@
15:00 UTC

Dec-8 @ 15:00 UTC

BECMG 0814/0815 19012G18KT 9999 SCT040 QNH3018INS TX07/0720Z TNM01/0711Z

Becoming

Becoming Conditions expected by Sun, Dec 8, 2019 @ 15:00 UTC

Wind
  • 190° at 12 KTS
  • {Gusting to 18 KTS
Cloud Levels
  • Scattered at 4,000' AGL